createdAt,value
2022-11-19T00:01:49.963Z,-1.96
2022-11-19T00:04:46.840Z,-2.06
2022-11-19T00:07:43.651Z,-1.95
2022-11-19T00:10:40.710Z,-2.12
2022-11-19T00:13:39.651Z,-1.91
2022-11-19T00:16:36.557Z,-1.94
2022-11-19T00:19:33.460Z,-1.88
2022-11-19T00:22:30.292Z,-2.01
2022-11-19T00:25:30.808Z,-1.94
2022-11-19T00:28:27.628Z,-2.06
2022-11-19T00:31:24.917Z,-1.93
2022-11-19T00:34:21.822Z,-2.12
2022-11-19T00:37:18.647Z,-1.94
2022-11-19T00:40:15.624Z,-2.14
2022-11-19T00:43:30.787Z,-1.88
2022-11-19T00:46:31.752Z,-2.07
2022-11-19T00:49:28.682Z,-2.09
2022-11-19T00:52:25.551Z,-2.12
2022-11-19T00:55:22.394Z,-2.14
2022-11-19T00:58:19.491Z,-2.11
2022-11-19T01:01:19.237Z,-2.37
2022-11-19T01:04:16.207Z,-2.23
2022-11-19T01:07:13.113Z,-1.96
2022-11-19T01:10:10.171Z,-2.17
2022-11-19T01:13:25.449Z,-2.13
2022-11-19T01:16:28.360Z,-2.10
2022-11-19T01:19:25.259Z,-2.09
2022-11-19T01:22:22.111Z,-1.72
2022-11-19T01:25:18.976Z,-2.32
2022-11-19T01:28:15.829Z,-2.09
2022-11-19T01:31:28.681Z,-2.43
2022-11-19T01:34:25.542Z,-2.38
2022-11-19T01:37:22.390Z,-2.42
2022-11-19T01:40:19.522Z,-2.35
2022-11-19T01:43:16.544Z,-2.49
2022-11-19T01:46:17.817Z,-2.25
2022-11-19T01:49:20.261Z,-2.14
2022-11-19T01:52:17.601Z,-2.31
2022-11-19T01:55:15.248Z,-2.39
2022-11-19T01:58:17.572Z,-2.28
2022-11-19T02:01:16.389Z,-2.39
2022-11-19T02:04:16.424Z,-2.33
2022-11-19T02:07:14.099Z,-2.48
2022-11-19T02:10:11.458Z,-2.47
2022-11-19T02:13:42.663Z,-2.35
2022-11-19T02:16:42.427Z,-2.45
2022-11-19T02:20:18.679Z,-2.55
2022-11-19T02:23:24.083Z,-2.44
2022-11-19T02:27:03.116Z,-2.56
2022-11-19T02:30:18.276Z,-2.60
2022-11-19T02:33:40.776Z,-2.66
2022-11-19T02:37:05.304Z,-2.73
2022-11-19T02:40:08.266Z,-2.33
2022-11-19T02:43:10.963Z,-2.59
2022-11-19T02:46:16.448Z,-2.57
2022-11-19T02:49:15.362Z,-2.52
2022-11-19T02:52:15.538Z,-2.67
2022-11-19T02:55:15.056Z,-2.83
2022-11-19T02:58:37.940Z,-2.73
2022-11-19T03:01:57.274Z,-2.87
2022-11-19T03:04:55.713Z,-2.87
2022-11-19T03:07:52.632Z,-2.73
2022-11-19T03:11:24.731Z,-2.81
2022-11-19T03:14:50.044Z,-2.87
2022-11-19T03:18:15.462Z,-3.00
2022-11-19T03:21:47.190Z,-2.72
2022-11-19T03:24:58.839Z,-2.98
2022-11-19T03:28:05.274Z,-2.77
2022-11-19T03:31:04.356Z,-2.76
2022-11-19T03:34:08.909Z,-2.75
2022-11-19T03:37:09.398Z,-2.89
2022-11-19T03:40:08.997Z,-3.08
2022-11-19T03:43:09.874Z,-3.13
2022-11-19T03:46:13.183Z,-2.85
2022-11-19T03:49:13.235Z,-2.97
2022-11-19T03:52:19.806Z,-2.73
2022-11-19T03:55:16.921Z,-2.88
2022-11-19T03:58:13.835Z,-3.12
2022-11-19T04:01:11.947Z,-3.05
2022-11-19T04:04:27.164Z,-3.00
2022-11-19T04:07:24.197Z,-2.92
2022-11-19T04:10:21.212Z,-3.22
2022-11-19T04:13:18.125Z,-2.73
2022-11-19T04:16:14.942Z,-3.02
2022-11-19T04:19:11.848Z,-2.72
2022-11-19T04:22:09.616Z,-2.87
2022-11-19T04:25:06.837Z,-3.01
2022-11-19T04:28:03.687Z,-2.75
2022-11-19T04:31:00.549Z,-3.06
2022-11-19T04:33:57.403Z,-3.05
2022-11-19T04:36:54.251Z,-3.05
2022-11-19T04:39:51.069Z,-3.07
2022-11-19T04:42:47.873Z,-2.98
2022-11-19T04:45:44.687Z,-2.95
2022-11-19T04:48:41.561Z,-2.97
2022-11-19T04:51:38.481Z,-2.99
2022-11-19T04:54:35.392Z,-3.35
2022-11-19T04:57:32.644Z,-2.98
2022-11-19T05:00:29.577Z,-3.08
2022-11-19T05:03:26.416Z,-3.12
2022-11-19T05:06:23.231Z,-3.06
2022-11-19T05:09:20.311Z,-2.81
2022-11-19T05:12:17.454Z,-3.03
2022-11-19T05:15:14.309Z,-2.93
2022-11-19T05:18:11.971Z,-3.18
2022-11-19T05:21:09.142Z,-3.13
2022-11-19T05:24:06.337Z,-3.09
2022-11-19T05:27:03.622Z,-2.77
2022-11-19T05:30:00.450Z,-3.00
2022-11-19T05:32:57.301Z,-2.77
2022-11-19T05:35:54.130Z,-2.94
2022-11-19T05:38:50.967Z,-3.16
2022-11-19T05:41:47.793Z,-3.02
2022-11-19T05:44:44.630Z,-2.88
2022-11-19T05:47:44.733Z,-3.02
2022-11-19T05:50:45.247Z,-3.36
2022-11-19T05:53:43.066Z,-3.22
2022-11-19T05:56:40.754Z,-3.18
2022-11-19T05:59:43.516Z,-3.33
2022-11-19T06:02:40.831Z,-3.37
2022-11-19T06:05:40.470Z,-3.17
2022-11-19T06:08:37.670Z,-3.34
2022-11-19T06:11:52.685Z,-3.32
2022-11-19T06:14:49.569Z,-3.20
2022-11-19T06:17:46.415Z,-3.24
2022-11-19T06:20:43.277Z,-3.22
2022-11-19T06:23:40.139Z,-3.28
2022-11-19T06:26:37.924Z,-3.34
2022-11-19T06:29:34.793Z,-3.30
2022-11-19T06:32:31.700Z,-3.35
2022-11-19T06:35:28.509Z,-3.41
2022-11-19T06:38:25.835Z,-3.33
2022-11-19T06:41:22.835Z,-3.12
2022-11-19T06:44:19.735Z,-3.24
2022-11-19T06:47:16.579Z,-3.32
2022-11-19T06:50:13.413Z,-3.26
2022-11-19T06:53:10.241Z,-3.23
2022-11-19T06:56:08.029Z,-3.13
2022-11-19T06:59:04.850Z,-3.24
2022-11-19T07:02:01.692Z,-3.10
2022-11-19T07:04:58.604Z,-3.18
2022-11-19T07:08:00.137Z,-3.26
2022-11-19T07:10:59.845Z,-3.31
2022-11-19T07:13:57.700Z,-2.87
2022-11-19T07:16:56.632Z,-2.92
2022-11-19T07:19:53.559Z,-3.18
2022-11-19T07:22:53.663Z,-3.20
2022-11-19T07:25:53.539Z,-3.24
2022-11-19T07:28:51.177Z,-3.32
2022-11-19T07:31:50.532Z,-3.03
2022-11-19T07:34:47.554Z,-2.98
2022-11-19T07:37:44.425Z,-3.16
2022-11-19T07:40:41.289Z,-3.10
2022-11-19T07:43:38.200Z,-2.97
2022-11-19T07:46:35.443Z,-3.16
2022-11-19T07:49:32.305Z,-3.03
2022-11-19T07:52:29.153Z,-3.02
2022-11-19T07:55:26.413Z,-3.18
2022-11-19T07:58:23.318Z,-3.07
2022-11-19T08:01:23.176Z,-2.88
2022-11-19T08:04:20.117Z,-3.12
2022-11-19T08:07:17.118Z,-2.84
2022-11-19T08:10:14.108Z,-2.99
2022-11-19T08:13:10.923Z,-2.81
2022-11-19T08:16:37.779Z,-2.84
2022-11-19T08:19:34.723Z,-2.81
2022-11-19T08:22:31.575Z,-2.90
2022-11-19T08:25:28.519Z,-2.84
2022-11-19T08:28:25.404Z,-2.67
2022-11-19T08:31:22.242Z,-2.79
2022-11-19T08:34:19.774Z,-2.72
2022-11-19T08:37:17.191Z,-2.74
2022-11-19T08:40:14.389Z,-2.43
2022-11-19T08:43:11.231Z,-2.58
2022-11-19T08:46:08.916Z,-2.53
2022-11-19T08:49:06.455Z,-2.33
2022-11-19T08:52:03.361Z,-2.27
2022-11-19T08:55:00.264Z,-2.45
2022-11-19T08:58:06.403Z,-2.15
2022-11-19T09:01:15.037Z,-2.44
2022-11-19T09:04:11.975Z,-2.22
2022-11-19T09:07:08.854Z,-2.22
2022-11-19T09:10:06.289Z,-2.31
2022-11-19T09:13:04.452Z,-1.96
2022-11-19T09:16:01.660Z,-2.08
2022-11-19T09:18:58.657Z,-2.03
2022-11-19T09:21:55.466Z,-2.21
2022-11-19T09:24:52.314Z,-1.91
2022-11-19T09:27:49.216Z,-1.80
2022-11-19T09:30:53.867Z,-1.82
2022-11-19T09:33:52.512Z,-1.73
2022-11-19T09:36:49.403Z,-1.50
2022-11-19T09:39:46.363Z,-1.46
2022-11-19T09:43:15.472Z,-1.49
2022-11-19T09:46:47.886Z,-1.48
2022-11-19T09:49:52.872Z,-1.46
2022-11-19T09:53:17.295Z,-1.63
2022-11-19T09:56:25.403Z,-1.64
2022-11-19T09:59:36.475Z,-1.45
2022-11-19T10:02:33.444Z,-1.53
2022-11-19T10:06:08.379Z,-1.35
2022-11-19T10:09:37.160Z,-1.31
2022-11-19T10:13:12.060Z,-1.49
2022-11-19T10:16:08.972Z,-1.36
2022-11-19T10:19:37.527Z,-1.41
2022-11-19T10:23:02.372Z,-1.51
2022-11-19T10:26:06.692Z,-1.52
2022-11-19T10:29:21.496Z,-1.75
2022-11-19T10:32:42.846Z,-1.45
2022-11-19T10:35:50.073Z,-1.67
2022-11-19T10:39:17.250Z,-1.59
2022-11-19T10:42:32.235Z,-1.49
2022-11-19T10:45:30.117Z,-1.50
2022-11-19T10:48:38.009Z,-1.52
2022-11-19T10:51:41.628Z,-1.63
2022-11-19T10:54:39.838Z,-1.63
2022-11-19T10:57:37.011Z,-1.50
2022-11-19T11:00:35.488Z,-1.21
2022-11-19T11:03:52.189Z,-1.01
2022-11-19T11:06:57.411Z,-1.29
2022-11-19T11:09:54.260Z,-1.38
2022-11-19T11:13:10.745Z,-1.02
2022-11-19T11:16:13.294Z,-1.12
2022-11-19T11:19:20.061Z,-1.06
2022-11-19T11:22:19.825Z,-0.94
2022-11-19T11:25:23.273Z,-1.38
2022-11-19T11:28:23.303Z,-1.06
2022-11-19T11:31:45.909Z,-1.48
2022-11-19T11:34:44.067Z,-1.28
2022-11-19T11:37:41.094Z,-1.53
2022-11-19T11:40:38.021Z,-1.63
2022-11-19T11:43:38.557Z,-1.44
2022-11-19T11:46:48.006Z,-1.73
2022-11-19T11:49:51.452Z,-1.46
2022-11-19T11:52:53.817Z,-1.53
2022-11-19T11:56:02.547Z,-1.48
2022-11-19T11:59:30.439Z,-1.61
2022-11-19T12:02:34.013Z,-1.76
2022-11-19T12:06:01.506Z,-1.79
2022-11-19T12:09:44.586Z,-1.87
2022-11-19T12:12:50.754Z,-1.93
2022-11-19T12:16:22.133Z,-1.95
2022-11-19T12:19:57.435Z,-1.98
2022-11-19T12:23:14.557Z,-1.98
2022-11-19T12:26:36.783Z,-1.58
2022-11-19T12:30:06.141Z,-1.87
2022-11-19T12:33:39.927Z,-2.13
2022-11-19T12:37:18.825Z,-2.10
2022-11-19T12:40:31.105Z,-2.15
2022-11-19T12:44:09.482Z,-2.32
2022-11-19T12:47:44.750Z,-2.46
2022-11-19T12:50:56.904Z,-2.37
2022-11-19T12:54:36.117Z,-2.43
2022-11-19T12:58:00.301Z,-2.58
2022-11-19T13:01:05.669Z,-2.58
2022-11-19T13:04:11.444Z,-2.74
2022-11-19T13:07:41.296Z,-3.01
2022-11-19T13:11:22.332Z,-2.82
2022-11-19T13:14:38.171Z,-2.82
2022-11-19T13:17:44.529Z,-2.75
2022-11-19T13:21:07.168Z,-2.56
2022-11-19T13:24:36.757Z,-2.74
2022-11-19T13:27:33.632Z,-2.68
2022-11-19T13:30:33.609Z,-2.41
2022-11-19T13:33:51.447Z,-2.87
2022-11-19T13:37:17.081Z,-2.36
2022-11-19T13:40:40.490Z,-2.40
2022-11-19T13:43:55.991Z,-2.35
2022-11-19T13:46:59.735Z,-2.90
2022-11-19T13:50:06.332Z,-2.97
2022-11-19T13:53:19.049Z,-2.77
2022-11-19T13:56:17.499Z,-2.67
2022-11-19T14:00:15.758Z,-2.72
2022-11-19T14:04:00.342Z,-2.90
2022-11-19T14:07:30.725Z,-3.06
2022-11-19T14:10:41.485Z,-3.02
2022-11-19T14:14:46.053Z,-2.59
2022-11-19T14:18:13.497Z,-2.84
2022-11-19T14:22:03.308Z,-3.13
2022-11-19T14:25:19.003Z,-3.28
2022-11-19T14:28:52.072Z,-3.35
2022-11-19T14:32:02.756Z,-3.46
2022-11-19T14:35:02.846Z,-3.41
2022-11-19T14:38:19.893Z,-3.52
2022-11-19T14:41:31.127Z,-3.38
2022-11-19T14:44:27.850Z,-3.70
2022-11-19T14:47:28.618Z,-3.56
2022-11-19T14:50:30.839Z,-3.53
2022-11-19T14:53:27.741Z,-3.58
2022-11-19T14:56:25.215Z,-3.45
2022-11-19T14:59:31.307Z,-3.42
2022-11-19T15:02:46.089Z,-3.76
2022-11-19T15:05:46.353Z,-3.97
2022-11-19T15:08:59.001Z,-3.89
2022-11-19T15:11:55.863Z,-3.83
2022-11-19T15:15:07.607Z,-3.93
2022-11-19T15:18:35.153Z,-3.96
2022-11-19T15:22:15.938Z,-3.90
2022-11-19T15:25:52.412Z,-4.12
2022-11-19T15:29:12.271Z,-4.05
2022-11-19T15:33:03.838Z,-4.21
2022-11-19T15:36:18.867Z,-4.36
2022-11-19T15:39:42.849Z,-4.22
2022-11-19T15:43:08.781Z,-4.11
2022-11-19T15:46:51.015Z,-4.43
2022-11-19T15:49:51.132Z,-4.36
2022-11-19T15:53:14.529Z,-4.33
2022-11-19T15:56:14.444Z,-4.23
2022-11-19T15:59:15.434Z,-4.38
2022-11-19T16:02:38.628Z,-4.40
2022-11-19T16:05:35.592Z,-4.33
2022-11-19T16:08:33.482Z,-4.52
2022-11-19T16:11:54.134Z,-4.62
2022-11-19T16:15:11.136Z,-5.04
2022-11-19T16:18:16.587Z,-5.16
2022-11-19T16:21:22.949Z,-5.27
2022-11-19T16:24:40.018Z,-5.51
2022-11-19T16:27:45.038Z,-5.44
2022-11-19T16:31:00.413Z,-5.39
2022-11-19T16:33:58.005Z,-5.59
2022-11-19T16:36:55.219Z,-5.61
2022-11-19T16:39:53.352Z,-5.71
2022-11-19T16:43:00.149Z,-5.78
2022-11-19T16:45:57.909Z,-5.95
2022-11-19T16:49:00.754Z,-5.57
2022-11-19T16:51:58.240Z,-5.57
2022-11-19T16:54:55.095Z,-5.85
2022-11-19T16:58:02.511Z,-5.99
2022-11-19T17:00:59.746Z,-5.98
2022-11-19T17:04:07.616Z,-6.15
2022-11-19T17:07:05.425Z,-6.10
2022-11-19T17:10:34.077Z,-5.93
2022-11-19T17:13:32.646Z,-6.30
2022-11-19T17:16:29.534Z,-5.62
2022-11-19T17:19:33.609Z,-5.45
2022-11-19T17:22:35.656Z,-5.41
2022-11-19T17:25:32.518Z,-6.17
2022-11-19T17:28:45.252Z,-6.47
2022-11-19T17:31:47.946Z,-6.23
2022-11-19T17:34:49.187Z,-6.62
2022-11-19T17:37:46.085Z,-6.71
2022-11-19T17:40:58.760Z,-6.53
2022-11-19T17:44:14.682Z,-6.66
2022-11-19T17:47:22.722Z,-6.75
2022-11-19T17:50:20.381Z,-6.70
2022-11-19T17:53:19.482Z,-6.74
2022-11-19T17:56:26.154Z,-6.68
2022-11-19T17:59:23.046Z,-6.63
2022-11-19T18:02:21.204Z,-6.56
2022-11-19T18:05:21.353Z,-6.66
2022-11-19T18:08:18.451Z,-6.55
2022-11-19T18:11:25.403Z,-6.72
2022-11-19T18:14:22.334Z,-6.78
2022-11-19T18:17:19.288Z,-6.81
2022-11-19T18:20:16.665Z,-6.81
2022-11-19T18:23:13.873Z,-6.95
2022-11-19T18:26:12.522Z,-7.02
2022-11-19T18:29:09.567Z,-6.76
2022-11-19T18:32:06.541Z,-6.83
2022-11-19T18:35:03.959Z,-6.89
2022-11-19T18:38:00.810Z,-6.48
2022-11-19T18:40:57.694Z,-6.40
2022-11-19T18:44:12.985Z,-6.98
2022-11-19T18:47:13.035Z,-7.23
2022-11-19T18:50:12.407Z,-7.37
2022-11-19T18:53:13.695Z,-7.24
2022-11-19T18:56:19.041Z,-7.36
2022-11-19T18:59:15.965Z,-7.36
2022-11-19T19:02:12.951Z,-7.39
2022-11-19T19:05:10.102Z,-7.29
2022-11-19T19:08:07.586Z,-7.40
2022-11-19T19:11:26.212Z,-7.47
2022-11-19T19:14:23.178Z,-7.40
2022-11-19T19:17:20.283Z,-7.37
2022-11-19T19:20:17.239Z,-7.46
2022-11-19T19:23:14.075Z,-7.46
2022-11-19T19:26:12.853Z,-7.57
2022-11-19T19:29:09.754Z,-7.37
2022-11-19T19:32:07.546Z,-7.64
2022-11-19T19:35:04.854Z,-7.77
2022-11-19T19:38:02.158Z,-7.66
2022-11-19T19:41:10.705Z,-7.83
2022-11-19T19:44:07.601Z,-7.70
2022-11-19T19:47:05.460Z,-7.70
2022-11-19T19:50:02.379Z,-7.81
2022-11-19T19:53:00.107Z,-7.58
2022-11-19T19:56:28.913Z,-7.74
2022-11-19T19:59:25.809Z,-7.78
2022-11-19T20:02:22.789Z,-7.75
2022-11-19T20:05:19.767Z,-7.78
2022-11-19T20:08:16.845Z,-7.75
2022-11-19T20:11:21.513Z,-7.60
2022-11-19T20:14:18.364Z,-7.78
2022-11-19T20:17:15.270Z,-7.69
2022-11-19T20:20:12.649Z,-7.80
2022-11-19T20:23:09.538Z,-7.73
2022-11-19T20:26:20.237Z,-7.81
2022-11-19T20:29:17.705Z,-7.89
2022-11-19T20:32:14.713Z,-7.97
2022-11-19T20:35:11.905Z,-8.00
2022-11-19T20:38:08.834Z,-7.93
2022-11-19T20:41:29.643Z,-7.92
2022-11-19T20:44:26.572Z,-7.97
2022-11-19T20:47:23.514Z,-7.99
2022-11-19T20:50:20.404Z,-7.92
2022-11-19T20:53:17.248Z,-7.86
2022-11-19T20:56:14.596Z,-8.03
2022-11-19T20:59:12.670Z,-8.03
2022-11-19T21:02:10.315Z,-8.18
2022-11-19T21:05:08.025Z,-8.22
2022-11-19T21:08:05.135Z,-8.20
2022-11-19T21:11:11.432Z,-8.16
2022-11-19T21:14:08.354Z,-8.39
2022-11-19T21:17:05.397Z,-8.45
2022-11-19T21:20:02.287Z,-8.25
2022-11-19T21:22:59.186Z,-8.50
2022-11-19T21:26:13.518Z,-8.34
2022-11-19T21:29:10.460Z,-8.43
2022-11-19T21:32:08.144Z,-8.20
2022-11-19T21:35:05.752Z,-8.32
2022-11-19T21:38:02.652Z,-8.45
2022-11-19T21:40:59.864Z,-8.38
2022-11-19T21:43:56.846Z,-8.23
2022-11-19T21:46:53.743Z,-8.35
2022-11-19T21:49:53.451Z,-8.32
2022-11-19T21:52:50.309Z,-8.68
2022-11-19T21:55:47.975Z,-8.48
2022-11-19T21:58:44.897Z,-8.40
2022-11-19T22:01:41.829Z,-8.44
2022-11-19T22:04:38.774Z,-8.69
2022-11-19T22:07:35.808Z,-8.71
2022-11-19T22:10:32.775Z,-8.71
2022-11-19T22:13:30.035Z,-8.82
2022-11-19T22:16:28.056Z,-8.68
2022-11-19T22:19:24.912Z,-8.89
2022-11-19T22:22:21.812Z,-8.74
2022-11-19T22:25:18.779Z,-8.65
2022-11-19T22:28:15.649Z,-8.71
2022-11-19T22:31:12.574Z,-8.67
2022-11-19T22:34:11.111Z,-8.75
2022-11-19T22:37:08.402Z,-8.55
2022-11-19T22:40:05.866Z,-8.84
2022-11-19T22:43:02.745Z,-8.92
2022-11-19T22:46:00.097Z,-8.74
2022-11-19T22:48:57.218Z,-8.83
2022-11-19T22:51:54.619Z,-8.85
2022-11-19T22:54:51.669Z,-8.97
2022-11-19T22:57:48.555Z,-8.79
2022-11-19T23:00:48.815Z,-8.70
2022-11-19T23:03:46.403Z,-8.74
2022-11-19T23:06:43.345Z,-8.85
2022-11-19T23:09:40.209Z,-8.89
2022-11-19T23:12:55.816Z,-8.67
2022-11-19T23:16:05.882Z,-8.84
2022-11-19T23:19:03.021Z,-8.75
2022-11-19T23:21:59.875Z,-9.02
2022-11-19T23:24:56.922Z,-9.26
2022-11-19T23:27:53.773Z,-8.99
2022-11-19T23:30:50.848Z,-9.01
2022-11-19T23:33:49.082Z,-9.04
2022-11-19T23:36:46.356Z,-9.01
2022-11-19T23:39:43.301Z,-8.89
2022-11-19T23:42:40.162Z,-8.88
2022-11-19T23:45:37.092Z,-8.93
2022-11-19T23:48:35.199Z,-8.90
2022-11-19T23:51:37.822Z,-8.75
2022-11-19T23:54:34.704Z,-8.88
2022-11-19T23:57:31.576Z,-8.90
